sensor_id;sensor_type;location;lat;lon;timestamp;P1;durP1;ratioP1;P2;durP2;ratioP2
20609;SDS011;10463;52.378;9.688;2024-02-23T00:01:55;3.23;;;1.40;;
20609;SDS011;10463;52.378;9.688;2024-02-23T00:04:40;2.63;;;1.60;;
20609;SDS011;10463;52.378;9.688;2024-02-23T00:07:25;1.87;;;1.00;;
20609;SDS011;10463;52.378;9.688;2024-02-23T00:10:10;2.63;;;1.30;;
20609;SDS011;10463;52.378;9.688;2024-02-23T00:12:54;2.70;;;1.20;;
20609;SDS011;10463;52.378;9.688;2024-02-23T00:15:41;2.97;;;1.30;;
20609;SDS011;10463;52.378;9.688;2024-02-23T00:18:28;2.50;;;1.17;;
20609;SDS011;10463;52.378;9.688;2024-02-23T00:21:12;2.63;;;1.60;;
20609;SDS011;10463;52.378;9.688;2024-02-23T00:23:57;2.93;;;1.23;;
20609;SDS011;10463;52.378;9.688;2024-02-23T00:26:41;2.53;;;1.40;;
20609;SDS011;10463;52.378;9.688;2024-02-23T00:29:26;2.50;;;1.40;;
20609;SDS011;10463;52.378;9.688;2024-02-23T00:32:12;2.57;;;1.50;;
20609;SDS011;10463;52.378;9.688;2024-02-23T00:34:57;3.60;;;1.67;;
20609;SDS011;10463;52.378;9.688;2024-02-23T00:37:41;2.80;;;1.70;;
20609;SDS011;10463;52.378;9.688;2024-02-23T00:40:26;3.13;;;1.87;;
20609;SDS011;10463;52.378;9.688;2024-02-23T00:43:11;2.17;;;1.13;;
20609;SDS011;10463;52.378;9.688;2024-02-23T00:45:56;2.80;;;1.53;;
20609;SDS011;10463;52.378;9.688;2024-02-23T00:48:41;2.13;;;1.27;;
20609;SDS011;10463;52.378;9.688;2024-02-23T00:51:26;3.00;;;1.70;;
20609;SDS011;10463;52.378;9.688;2024-02-23T00:54:10;3.10;;;1.53;;
20609;SDS011;10463;52.378;9.688;2024-02-23T00:56:55;1.90;;;1.13;;
20609;SDS011;10463;52.378;9.688;2024-02-23T00:59:39;2.30;;;1.30;;
20609;SDS011;10463;52.378;9.688;2024-02-23T01:02:24;2.27;;;1.03;;
20609;SDS011;10463;52.378;9.688;2024-02-23T01:05:10;2.03;;;1.20;;
20609;SDS011;10463;52.378;9.688;2024-02-23T01:07:55;2.13;;;1.30;;
20609;SDS011;10463;52.378;9.688;2024-02-23T01:10:39;2.00;;;1.20;;
20609;SDS011;10463;52.378;9.688;2024-02-23T01:13:24;2.30;;;0.97;;
20609;SDS011;10463;52.378;9.688;2024-02-23T01:16:08;1.80;;;1.07;;
20609;SDS011;10463;52.378;9.688;2024-02-23T01:18:53;2.30;;;1.03;;
20609;SDS011;10463;52.378;9.688;2024-02-23T01:21:39;1.73;;;1.03;;
20609;SDS011;10463;52.378;9.688;2024-02-23T01:24:23;2.30;;;1.20;;
20609;SDS011;10463;52.378;9.688;2024-02-23T01:27:10;2.00;;;0.90;;
20609;SDS011;10463;52.378;9.688;2024-02-23T01:29:54;2.13;;;1.00;;
20609;SDS011;10463;52.378;9.688;2024-02-23T01:32:39;1.70;;;0.80;;
20609;SDS011;10463;52.378;9.688;2024-02-23T01:35:24;1.90;;;0.93;;
20609;SDS011;10463;52.378;9.688;2024-02-23T01:38:10;2.00;;;1.00;;
20609;SDS011;10463;52.378;9.688;2024-02-23T01:40:55;1.90;;;1.03;;
20609;SDS011;10463;52.378;9.688;2024-02-23T01:43:41;2.10;;;1.00;;
20609;SDS011;10463;52.378;9.688;2024-02-23T01:46:26;1.70;;;0.90;;
20609;SDS011;10463;52.378;9.688;2024-02-23T01:49:10;1.97;;;1.00;;
20609;SDS011;10463;52.378;9.688;2024-02-23T01:51:56;2.17;;;1.20;;
20609;SDS011;10463;52.378;9.688;2024-02-23T01:54:42;1.60;;;0.90;;
20609;SDS011;10463;52.378;9.688;2024-02-23T01:57:27;1.43;;;0.77;;
20609;SDS011;10463;52.378;9.688;2024-02-23T02:00:13;1.50;;;1.00;;
20609;SDS011;10463;52.378;9.688;2024-02-23T02:03:06;1.50;;;0.70;;
20609;SDS011;10463;52.378;9.688;2024-02-23T02:05:52;1.60;;;0.80;;
20609;SDS011;10463;52.378;9.688;2024-02-23T02:08:38;1.80;;;0.80;;
20609;SDS011;10463;52.378;9.688;2024-02-23T02:11:24;2.10;;;0.90;;
20609;SDS011;10463;52.378;9.688;2024-02-23T02:14:09;1.60;;;0.83;;
20609;SDS011;10463;52.378;9.688;2024-02-23T02:16:54;1.53;;;0.80;;
20609;SDS011;10463;52.378;9.688;2024-02-23T02:19:39;1.67;;;0.90;;
20609;SDS011;10463;52.378;9.688;2024-02-23T02:22:32;2.07;;;0.97;;
20609;SDS011;10463;52.378;9.688;2024-02-23T02:25:17;1.50;;;0.70;;
20609;SDS011;10463;52.378;9.688;2024-02-23T02:28:06;1.87;;;0.83;;
20609;SDS011;10463;52.378;9.688;2024-02-23T02:30:52;1.87;;;1.00;;
20609;SDS011;10463;52.378;9.688;2024-02-23T02:33:37;1.57;;;0.80;;
20609;SDS011;10463;52.378;9.688;2024-02-23T02:36:23;1.30;;;0.70;;
20609;SDS011;10463;52.378;9.688;2024-02-23T02:39:08;1.50;;;0.70;;
20609;SDS011;10463;52.378;9.688;2024-02-23T02:41:54;1.57;;;0.80;;
20609;SDS011;10463;52.378;9.688;2024-02-23T02:44:41;1.50;;;0.80;;
20609;SDS011;10463;52.378;9.688;2024-02-23T02:47:26;1.30;;;0.60;;
20609;SDS011;10463;52.378;9.688;2024-02-23T02:50:10;1.50;;;0.70;;
20609;SDS011;10463;52.378;9.688;2024-02-23T02:52:55;1.50;;;0.80;;
20609;SDS011;10463;52.378;9.688;2024-02-23T02:55:41;1.30;;;0.60;;
20609;SDS011;10463;52.378;9.688;2024-02-23T02:58:27;1.90;;;0.90;;
20609;SDS011;10463;52.378;9.688;2024-02-23T03:01:13;1.67;;;0.80;;
20609;SDS011;10463;52.378;9.688;2024-02-23T03:03:57;2.10;;;1.03;;
20609;SDS011;10463;52.378;9.688;2024-02-23T03:06:42;1.30;;;0.60;;
20609;SDS011;10463;52.378;9.688;2024-02-23T03:09:27;1.40;;;0.70;;
20609;SDS011;10463;52.378;9.688;2024-02-23T03:12:11;1.40;;;0.67;;
20609;SDS011;10463;52.378;9.688;2024-02-23T03:14:56;1.60;;;0.70;;
20609;SDS011;10463;52.378;9.688;2024-02-23T03:17:42;1.30;;;0.70;;
20609;SDS011;10463;52.378;9.688;2024-02-23T03:20:27;2.10;;;0.80;;
20609;SDS011;10463;52.378;9.688;2024-02-23T03:23:12;1.50;;;0.70;;
20609;SDS011;10463;52.378;9.688;2024-02-23T03:25:57;1.40;;;0.67;;
20609;SDS011;10463;52.378;9.688;2024-02-23T03:28:42;1.33;;;0.73;;
20609;SDS011;10463;52.378;9.688;2024-02-23T03:31:27;1.77;;;0.80;;
20609;SDS011;10463;52.378;9.688;2024-02-23T03:34:12;1.73;;;0.70;;
20609;SDS011;10463;52.378;9.688;2024-02-23T03:36:57;1.43;;;0.77;;
20609;SDS011;10463;52.378;9.688;2024-02-23T03:39:46;1.67;;;0.70;;
20609;SDS011;10463;52.378;9.688;2024-02-23T03:42:32;1.73;;;0.80;;
20609;SDS011;10463;52.378;9.688;2024-02-23T03:45:16;1.40;;;0.70;;
20609;SDS011;10463;52.378;9.688;2024-02-23T03:48:01;1.60;;;0.80;;
20609;SDS011;10463;52.378;9.688;2024-02-23T03:50:49;1.37;;;0.70;;
20609;SDS011;10463;52.378;9.688;2024-02-23T03:53:34;1.50;;;0.60;;
20609;SDS011;10463;52.378;9.688;2024-02-23T03:56:18;2.07;;;0.90;;
20609;SDS011;10463;52.378;9.688;2024-02-23T03:59:03;1.83;;;0.80;;
20609;SDS011;10463;52.378;9.688;2024-02-23T04:01:48;1.60;;;0.70;;
20609;SDS011;10463;52.378;9.688;2024-02-23T04:04:33;1.50;;;0.77;;
20609;SDS011;10463;52.378;9.688;2024-02-23T04:07:19;1.40;;;0.67;;
20609;SDS011;10463;52.378;9.688;2024-02-23T04:10:05;1.40;;;0.70;;
20609;SDS011;10463;52.378;9.688;2024-02-23T04:12:50;1.47;;;0.80;;
20609;SDS011;10463;52.378;9.688;2024-02-23T04:15:35;2.87;;;0.80;;
20609;SDS011;10463;52.378;9.688;2024-02-23T04:18:20;1.60;;;0.70;;
20609;SDS011;10463;52.378;9.688;2024-02-23T04:21:04;2.00;;;0.80;;
20609;SDS011;10463;52.378;9.688;2024-02-23T04:23:50;1.47;;;0.70;;
20609;SDS011;10463;52.378;9.688;2024-02-23T04:26:35;1.40;;;0.70;;
20609;SDS011;10463;52.378;9.688;2024-02-23T04:29:20;1.70;;;0.80;;
20609;SDS011;10463;52.378;9.688;2024-02-23T04:32:05;1.40;;;0.73;;
20609;SDS011;10463;52.378;9.688;2024-02-23T04:34:50;1.70;;;0.80;;
20609;SDS011;10463;52.378;9.688;2024-02-23T04:37:35;2.23;;;1.10;;
20609;SDS011;10463;52.378;9.688;2024-02-23T04:40:21;1.37;;;0.70;;
20609;SDS011;10463;52.378;9.688;2024-02-23T04:43:05;1.37;;;0.67;;
20609;SDS011;10463;52.378;9.688;2024-02-23T04:45:50;1.50;;;0.60;;
20609;SDS011;10463;52.378;9.688;2024-02-23T04:48:35;1.40;;;0.60;;
20609;SDS011;10463;52.378;9.688;2024-02-23T04:51:20;1.50;;;0.70;;
20609;SDS011;10463;52.378;9.688;2024-02-23T04:54:07;1.40;;;0.70;;
20609;SDS011;10463;52.378;9.688;2024-02-23T04:56:53;1.93;;;0.83;;
20609;SDS011;10463;52.378;9.688;2024-02-23T04:59:37;1.77;;;0.80;;
20609;SDS011;10463;52.378;9.688;2024-02-23T05:02:22;1.83;;;0.70;;
20609;SDS011;10463;52.378;9.688;2024-02-23T05:05:12;1.40;;;0.70;;
20609;SDS011;10463;52.378;9.688;2024-02-23T05:07:57;1.70;;;0.60;;
20609;SDS011;10463;52.378;9.688;2024-02-23T05:10:42;1.80;;;0.80;;
20609;SDS011;10463;52.378;9.688;2024-02-23T05:13:28;1.30;;;0.70;;
20609;SDS011;10463;52.378;9.688;2024-02-23T05:16:14;1.57;;;0.77;;
20609;SDS011;10463;52.378;9.688;2024-02-23T05:18:58;1.60;;;0.83;;
20609;SDS011;10463;52.378;9.688;2024-02-23T05:21:43;2.00;;;1.10;;
20609;SDS011;10463;52.378;9.688;2024-02-23T05:24:27;1.67;;;0.70;;
20609;SDS011;10463;52.378;9.688;2024-02-23T05:27:12;3.10;;;0.80;;
20609;SDS011;10463;52.378;9.688;2024-02-23T05:29:58;1.80;;;0.70;;
20609;SDS011;10463;52.378;9.688;2024-02-23T05:32:43;1.90;;;0.90;;
20609;SDS011;10463;52.378;9.688;2024-02-23T05:35:28;1.80;;;0.80;;
20609;SDS011;10463;52.378;9.688;2024-02-23T05:38:13;1.70;;;0.90;;
20609;SDS011;10463;52.378;9.688;2024-02-23T05:40:57;2.77;;;0.70;;
20609;SDS011;10463;52.378;9.688;2024-02-23T05:43:42;1.50;;;0.60;;
20609;SDS011;10463;52.378;9.688;2024-02-23T05:46:27;1.30;;;0.60;;
20609;SDS011;10463;52.378;9.688;2024-02-23T05:49:12;1.77;;;0.70;;
20609;SDS011;10463;52.378;9.688;2024-02-23T05:51:56;1.80;;;0.70;;
20609;SDS011;10463;52.378;9.688;2024-02-23T05:54:41;2.37;;;1.00;;
20609;SDS011;10463;52.378;9.688;2024-02-23T05:57:26;2.40;;;1.07;;
20609;SDS011;10463;52.378;9.688;2024-02-23T06:00:12;2.03;;;0.90;;
20609;SDS011;10463;52.378;9.688;2024-02-23T06:03:00;2.07;;;0.90;;
20609;SDS011;10463;52.378;9.688;2024-02-23T06:05:44;1.47;;;0.73;;
20609;SDS011;10463;52.378;9.688;2024-02-23T06:08:29;1.77;;;0.87;;
20609;SDS011;10463;52.378;9.688;2024-02-23T06:11:14;2.80;;;1.10;;
20609;SDS011;10463;52.378;9.688;2024-02-23T06:13:59;2.17;;;0.97;;
20609;SDS011;10463;52.378;9.688;2024-02-23T06:16:44;1.90;;;1.13;;
20609;SDS011;10463;52.378;9.688;2024-02-23T06:19:30;2.10;;;1.10;;
20609;SDS011;10463;52.378;9.688;2024-02-23T06:22:14;2.40;;;1.60;;
20609;SDS011;10463;52.378;9.688;2024-02-23T06:25:05;3.40;;;1.53;;
20609;SDS011;10463;52.378;9.688;2024-02-23T06:27:50;2.47;;;1.30;;
20609;SDS011;10463;52.378;9.688;2024-02-23T06:30:35;2.40;;;1.43;;
20609;SDS011;10463;52.378;9.688;2024-02-23T06:33:20;2.50;;;1.60;;
20609;SDS011;10463;52.378;9.688;2024-02-23T06:36:06;2.20;;;1.30;;
20609;SDS011;10463;52.378;9.688;2024-02-23T06:38:52;3.53;;;1.90;;
20609;SDS011;10463;52.378;9.688;2024-02-23T06:41:37;2.50;;;1.40;;
20609;SDS011;10463;52.378;9.688;2024-02-23T06:44:23;2.70;;;1.50;;
20609;SDS011;10463;52.378;9.688;2024-02-23T06:47:08;3.00;;;1.30;;
20609;SDS011;10463;52.378;9.688;2024-02-23T06:49:52;4.33;;;1.73;;
20609;SDS011;10463;52.378;9.688;2024-02-23T06:52:38;2.00;;;1.33;;
20609;SDS011;10463;52.378;9.688;2024-02-23T06:55:22;3.43;;;2.00;;
20609;SDS011;10463;52.378;9.688;2024-02-23T06:58:07;2.67;;;1.40;;
20609;SDS011;10463;52.378;9.688;2024-02-23T07:00:53;2.87;;;1.70;;
20609;SDS011;10463;52.378;9.688;2024-02-23T07:03:39;2.87;;;2.03;;
20609;SDS011;10463;52.378;9.688;2024-02-23T07:06:25;3.27;;;2.17;;
20609;SDS011;10463;52.378;9.688;2024-02-23T07:09:11;3.83;;;2.50;;
20609;SDS011;10463;52.378;9.688;2024-02-23T07:11:56;5.50;;;3.40;;
20609;SDS011;10463;52.378;9.688;2024-02-23T07:14:41;4.27;;;2.97;;
20609;SDS011;10463;52.378;9.688;2024-02-23T07:17:26;3.83;;;2.83;;
20609;SDS011;10463;52.378;9.688;2024-02-23T07:20:12;5.13;;;3.23;;
20609;SDS011;10463;52.378;9.688;2024-02-23T07:22:57;5.07;;;3.30;;
20609;SDS011;10463;52.378;9.688;2024-02-23T07:25:43;5.13;;;3.10;;
20609;SDS011;10463;52.378;9.688;2024-02-23T07:28:27;4.60;;;3.77;;
20609;SDS011;10463;52.378;9.688;2024-02-23T07:31:12;5.27;;;3.03;;
20609;SDS011;10463;52.378;9.688;2024-02-23T07:33:56;4.30;;;2.77;;
20609;SDS011;10463;52.378;9.688;2024-02-23T07:36:42;5.03;;;3.47;;
20609;SDS011;10463;52.378;9.688;2024-02-23T07:39:27;4.93;;;3.40;;
20609;SDS011;10463;52.378;9.688;2024-02-23T07:42:13;4.73;;;2.80;;
20609;SDS011;10463;52.378;9.688;2024-02-23T07:45:02;6.37;;;3.50;;
20609;SDS011;10463;52.378;9.688;2024-02-23T07:47:48;4.10;;;3.23;;
20609;SDS011;10463;52.378;9.688;2024-02-23T07:50:32;5.47;;;3.07;;
20609;SDS011;10463;52.378;9.688;2024-02-23T07:53:17;4.20;;;2.90;;
20609;SDS011;10463;52.378;9.688;2024-02-23T07:56:02;4.50;;;3.20;;
20609;SDS011;10463;52.378;9.688;2024-02-23T07:58:49;5.20;;;3.30;;
20609;SDS011;10463;52.378;9.688;2024-02-23T08:01:35;6.00;;;3.47;;
20609;SDS011;10463;52.378;9.688;2024-02-23T08:04:20;4.70;;;3.23;;
20609;SDS011;10463;52.378;9.688;2024-02-23T08:07:04;3.93;;;2.80;;
20609;SDS011;10463;52.378;9.688;2024-02-23T08:09:49;4.37;;;2.80;;
20609;SDS011;10463;52.378;9.688;2024-02-23T08:12:34;3.87;;;3.20;;
20609;SDS011;10463;52.378;9.688;2024-02-23T08:15:20;4.90;;;2.93;;
20609;SDS011;10463;52.378;9.688;2024-02-23T08:18:05;3.90;;;2.90;;
20609;SDS011;10463;52.378;9.688;2024-02-23T08:20:50;5.47;;;3.20;;
20609;SDS011;10463;52.378;9.688;2024-02-23T08:23:35;4.10;;;3.03;;
20609;SDS011;10463;52.378;9.688;2024-02-23T08:26:20;4.70;;;3.20;;
20609;SDS011;10463;52.378;9.688;2024-02-23T08:29:04;4.60;;;3.23;;
20609;SDS011;10463;52.378;9.688;2024-02-23T08:31:50;5.53;;;4.00;;
20609;SDS011;10463;52.378;9.688;2024-02-23T08:34:35;5.80;;;3.50;;
20609;SDS011;10463;52.378;9.688;2024-02-23T08:37:19;5.30;;;3.53;;
20609;SDS011;10463;52.378;9.688;2024-02-23T08:40:05;5.37;;;3.47;;
20609;SDS011;10463;52.378;9.688;2024-02-23T08:42:51;4.60;;;3.33;;
20609;SDS011;10463;52.378;9.688;2024-02-23T08:45:35;4.80;;;2.90;;
20609;SDS011;10463;52.378;9.688;2024-02-23T08:48:21;4.43;;;2.90;;
20609;SDS011;10463;52.378;9.688;2024-02-23T08:51:06;4.17;;;3.40;;
20609;SDS011;10463;52.378;9.688;2024-02-23T08:53:51;5.27;;;3.17;;
20609;SDS011;10463;52.378;9.688;2024-02-23T08:56:36;4.13;;;3.07;;
20609;SDS011;10463;52.378;9.688;2024-02-23T08:59:22;3.57;;;3.07;;
20609;SDS011;10463;52.378;9.688;2024-02-23T09:02:07;3.57;;;2.60;;
20609;SDS011;10463;52.378;9.688;2024-02-23T09:04:55;3.90;;;3.10;;
20609;SDS011;10463;52.378;9.688;2024-02-23T09:07:39;6.13;;;3.57;;
20609;SDS011;10463;52.378;9.688;2024-02-23T09:10:24;4.27;;;3.30;;
20609;SDS011;10463;52.378;9.688;2024-02-23T09:13:10;4.33;;;3.13;;
20609;SDS011;10463;52.378;9.688;2024-02-23T09:15:55;4.43;;;3.30;;
20609;SDS011;10463;52.378;9.688;2024-02-23T09:18:40;3.97;;;2.67;;
20609;SDS011;10463;52.378;9.688;2024-02-23T09:21:26;4.63;;;3.40;;
20609;SDS011;10463;52.378;9.688;2024-02-23T09:24:10;4.30;;;3.20;;
20609;SDS011;10463;52.378;9.688;2024-02-23T09:26:55;4.13;;;3.23;;
20609;SDS011;10463;52.378;9.688;2024-02-23T09:29:40;4.47;;;3.03;;
20609;SDS011;10463;52.378;9.688;2024-02-23T09:32:28;4.03;;;3.00;;
20609;SDS011;10463;52.378;9.688;2024-02-23T09:35:13;4.20;;;3.03;;
20609;SDS011;10463;52.378;9.688;2024-02-23T09:37:59;3.17;;;2.33;;
20609;SDS011;10463;52.378;9.688;2024-02-23T09:40:43;4.57;;;3.57;;
20609;SDS011;10463;52.378;9.688;2024-02-23T09:43:29;5.30;;;2.87;;
20609;SDS011;10463;52.378;9.688;2024-02-23T09:46:16;3.40;;;2.43;;
20609;SDS011;10463;52.378;9.688;2024-02-23T09:49:02;3.73;;;2.63;;
20609;SDS011;10463;52.378;9.688;2024-02-23T09:51:47;3.97;;;2.57;;
20609;SDS011;10463;52.378;9.688;2024-02-23T09:54:34;4.10;;;2.90;;
20609;SDS011;10463;52.378;9.688;2024-02-23T09:57:21;5.00;;;2.90;;
20609;SDS011;10463;52.378;9.688;2024-02-23T10:00:07;4.00;;;2.77;;
20609;SDS011;10463;52.378;9.688;2024-02-23T10:02:56;3.03;;;1.87;;
20609;SDS011;10463;52.378;9.688;2024-02-23T10:05:42;4.30;;;2.93;;
20609;SDS011;10463;52.378;9.688;2024-02-23T10:08:28;4.00;;;2.67;;
20609;SDS011;10463;52.378;9.688;2024-02-23T10:11:17;3.00;;;2.03;;
20609;SDS011;10463;52.378;9.688;2024-02-23T10:14:02;3.03;;;2.43;;
20609;SDS011;10463;52.378;9.688;2024-02-23T10:16:46;3.27;;;2.07;;
20609;SDS011;10463;52.378;9.688;2024-02-23T10:19:33;3.30;;;2.13;;
20609;SDS011;10463;52.378;9.688;2024-02-23T10:22:17;3.70;;;2.90;;
20609;SDS011;10463;52.378;9.688;2024-02-23T10:25:05;3.47;;;2.10;;
20609;SDS011;10463;52.378;9.688;2024-02-23T10:27:51;3.53;;;1.93;;
20609;SDS011;10463;52.378;9.688;2024-02-23T10:30:36;3.83;;;2.00;;
20609;SDS011;10463;52.378;9.688;2024-02-23T10:33:23;2.93;;;1.70;;
20609;SDS011;10463;52.378;9.688;2024-02-23T10:36:07;3.50;;;2.30;;
20609;SDS011;10463;52.378;9.688;2024-02-23T10:38:53;2.40;;;1.90;;
20609;SDS011;10463;52.378;9.688;2024-02-23T10:41:46;3.00;;;2.37;;
20609;SDS011;10463;52.378;9.688;2024-02-23T10:44:34;3.43;;;2.30;;
20609;SDS011;10463;52.378;9.688;2024-02-23T10:47:19;3.13;;;2.33;;
20609;SDS011;10463;52.378;9.688;2024-02-23T10:50:07;5.53;;;2.57;;
20609;SDS011;10463;52.378;9.688;2024-02-23T10:52:52;4.60;;;3.40;;
20609;SDS011;10463;52.378;9.688;2024-02-23T10:55:39;3.97;;;2.50;;
20609;SDS011;10463;52.378;9.688;2024-02-23T10:58:26;4.70;;;2.97;;
20609;SDS011;10463;52.378;9.688;2024-02-23T11:01:12;4.20;;;2.97;;
20609;SDS011;10463;52.378;9.688;2024-02-23T11:03:58;4.60;;;2.97;;
20609;SDS011;10463;52.378;9.688;2024-02-23T11:06:49;4.90;;;3.50;;
20609;SDS011;10463;52.378;9.688;2024-02-23T11:09:34;5.37;;;3.63;;
20609;SDS011;10463;52.378;9.688;2024-02-23T11:12:23;4.40;;;3.50;;
20609;SDS011;10463;52.378;9.688;2024-02-23T11:15:08;4.50;;;3.47;;
20609;SDS011;10463;52.378;9.688;2024-02-23T11:17:56;5.17;;;3.40;;
20609;SDS011;10463;52.378;9.688;2024-02-23T11:20:41;4.63;;;3.87;;
20609;SDS011;10463;52.378;9.688;2024-02-23T11:23:27;4.00;;;3.03;;
20609;SDS011;10463;52.378;9.688;2024-02-23T11:26:23;4.53;;;3.13;;
20609;SDS011;10463;52.378;9.688;2024-02-23T11:29:11;4.50;;;2.97;;
20609;SDS011;10463;52.378;9.688;2024-02-23T11:31:59;6.60;;;4.03;;
20609;SDS011;10463;52.378;9.688;2024-02-23T11:34:55;4.97;;;3.43;;
20609;SDS011;10463;52.378;9.688;2024-02-23T11:37:47;3.87;;;3.17;;
20609;SDS011;10463;52.378;9.688;2024-02-23T11:40:33;4.40;;;3.30;;
20609;SDS011;10463;52.378;9.688;2024-02-23T11:43:18;4.43;;;3.60;;
20609;SDS011;10463;52.378;9.688;2024-02-23T11:46:05;5.07;;;3.57;;
20609;SDS011;10463;52.378;9.688;2024-02-23T11:48:51;3.60;;;2.70;;
20609;SDS011;10463;52.378;9.688;2024-02-23T11:51:41;4.13;;;3.37;;
20609;SDS011;10463;52.378;9.688;2024-02-23T11:54:25;5.03;;;2.90;;
20609;SDS011;10463;52.378;9.688;2024-02-23T11:57:10;4.03;;;3.17;;
20609;SDS011;10463;52.378;9.688;2024-02-23T11:59:55;3.83;;;2.43;;
20609;SDS011;10463;52.378;9.688;2024-02-23T12:02:40;5.33;;;3.70;;
20609;SDS011;10463;52.378;9.688;2024-02-23T12:05:24;3.20;;;2.23;;
20609;SDS011;10463;52.378;9.688;2024-02-23T12:08:11;3.40;;;2.70;;
20609;SDS011;10463;52.378;9.688;2024-02-23T12:10:56;4.20;;;3.17;;
20609;SDS011;10463;52.378;9.688;2024-02-23T12:13:43;6.13;;;3.20;;
20609;SDS011;10463;52.378;9.688;2024-02-23T12:16:29;3.53;;;3.03;;
20609;SDS011;10463;52.378;9.688;2024-02-23T12:19:14;3.80;;;2.73;;
20609;SDS011;10463;52.378;9.688;2024-02-23T12:22:00;3.90;;;2.50;;
20609;SDS011;10463;52.378;9.688;2024-02-23T12:24:46;3.60;;;2.53;;
20609;SDS011;10463;52.378;9.688;2024-02-23T12:27:31;4.10;;;2.77;;
20609;SDS011;10463;52.378;9.688;2024-02-23T12:30:16;3.27;;;2.30;;
20609;SDS011;10463;52.378;9.688;2024-02-23T12:33:05;4.00;;;2.60;;
20609;SDS011;10463;52.378;9.688;2024-02-23T12:35:53;4.03;;;2.70;;
20609;SDS011;10463;52.378;9.688;2024-02-23T12:38:38;3.03;;;2.30;;
20609;SDS011;10463;52.378;9.688;2024-02-23T12:41:25;3.90;;;2.67;;
20609;SDS011;10463;52.378;9.688;2024-02-23T12:44:09;4.20;;;2.40;;
20609;SDS011;10463;52.378;9.688;2024-02-23T12:46:54;4.40;;;2.10;;
20609;SDS011;10463;52.378;9.688;2024-02-23T12:49:39;3.20;;;2.07;;
20609;SDS011;10463;52.378;9.688;2024-02-23T12:52:24;3.90;;;2.20;;
20609;SDS011;10463;52.378;9.688;2024-02-23T12:55:09;3.90;;;2.30;;
20609;SDS011;10463;52.378;9.688;2024-02-23T12:57:55;3.20;;;1.90;;
20609;SDS011;10463;52.378;9.688;2024-02-23T13:00:40;2.60;;;1.97;;
20609;SDS011;10463;52.378;9.688;2024-02-23T13:03:25;2.60;;;1.90;;
20609;SDS011;10463;52.378;9.688;2024-02-23T13:06:11;2.40;;;1.80;;
20609;SDS011;10463;52.378;9.688;2024-02-23T13:08:57;2.80;;;1.63;;
20609;SDS011;10463;52.378;9.688;2024-02-23T13:11:41;2.07;;;1.47;;
20609;SDS011;10463;52.378;9.688;2024-02-23T13:14:27;2.93;;;1.77;;
20609;SDS011;10463;52.378;9.688;2024-02-23T13:17:12;3.10;;;1.80;;
20609;SDS011;10463;52.378;9.688;2024-02-23T13:19:57;3.50;;;2.63;;
20609;SDS011;10463;52.378;9.688;2024-02-23T13:22:42;4.57;;;1.70;;
20609;SDS011;10463;52.378;9.688;2024-02-23T13:25:27;2.50;;;1.80;;
20609;SDS011;10463;52.378;9.688;2024-02-23T13:28:12;3.70;;;1.63;;
20609;SDS011;10463;52.378;9.688;2024-02-23T13:30:58;2.17;;;1.40;;
20609;SDS011;10463;52.378;9.688;2024-02-23T13:33:44;2.73;;;1.60;;
20609;SDS011;10463;52.378;9.688;2024-02-23T13:36:29;2.60;;;1.73;;
20609;SDS011;10463;52.378;9.688;2024-02-23T13:39:13;3.80;;;1.80;;
20609;SDS011;10463;52.378;9.688;2024-02-23T13:41:58;3.40;;;1.87;;
20609;SDS011;10463;52.378;9.688;2024-02-23T13:44:43;2.50;;;1.50;;
20609;SDS011;10463;52.378;9.688;2024-02-23T13:47:30;2.00;;;1.40;;
20609;SDS011;10463;52.378;9.688;2024-02-23T13:50:15;2.53;;;1.73;;
20609;SDS011;10463;52.378;9.688;2024-02-23T13:53:04;2.10;;;1.37;;
20609;SDS011;10463;52.378;9.688;2024-02-23T13:55:49;2.20;;;1.70;;
20609;SDS011;10463;52.378;9.688;2024-02-23T13:58:34;2.17;;;1.37;;
20609;SDS011;10463;52.378;9.688;2024-02-23T14:01:19;2.87;;;1.43;;
20609;SDS011;10463;52.378;9.688;2024-02-23T14:04:06;3.00;;;1.53;;
20609;SDS011;10463;52.378;9.688;2024-02-23T14:06:54;2.47;;;1.53;;
20609;SDS011;10463;52.378;9.688;2024-02-23T14:09:39;1.90;;;1.20;;
20609;SDS011;10463;52.378;9.688;2024-02-23T14:12:24;2.47;;;1.47;;
20609;SDS011;10463;52.378;9.688;2024-02-23T14:15:09;3.17;;;1.70;;
20609;SDS011;10463;52.378;9.688;2024-02-23T14:17:54;2.00;;;1.07;;
20609;SDS011;10463;52.378;9.688;2024-02-23T14:20:40;1.90;;;1.20;;
20609;SDS011;10463;52.378;9.688;2024-02-23T14:23:25;2.27;;;1.47;;
20609;SDS011;10463;52.378;9.688;2024-02-23T14:26:10;1.87;;;1.43;;
20609;SDS011;10463;52.378;9.688;2024-02-23T14:28:55;2.33;;;1.40;;
20609;SDS011;10463;52.378;9.688;2024-02-23T14:31:39;2.23;;;1.40;;
20609;SDS011;10463;52.378;9.688;2024-02-23T14:34:24;2.43;;;1.37;;
20609;SDS011;10463;52.378;9.688;2024-02-23T14:37:11;2.57;;;1.30;;
20609;SDS011;10463;52.378;9.688;2024-02-23T14:39:56;2.93;;;1.27;;
20609;SDS011;10463;52.378;9.688;2024-02-23T14:42:40;2.60;;;1.60;;
20609;SDS011;10463;52.378;9.688;2024-02-23T14:45:25;2.70;;;1.50;;
20609;SDS011;10463;52.378;9.688;2024-02-23T14:48:11;3.03;;;1.47;;
20609;SDS011;10463;52.378;9.688;2024-02-23T14:50:56;2.13;;;1.50;;
20609;SDS011;10463;52.378;9.688;2024-02-23T14:53:44;3.10;;;1.40;;
20609;SDS011;10463;52.378;9.688;2024-02-23T14:56:29;2.80;;;1.93;;
20609;SDS011;10463;52.378;9.688;2024-02-23T14:59:14;2.33;;;1.40;;
20609;SDS011;10463;52.378;9.688;2024-02-23T15:01:58;2.27;;;1.60;;
20609;SDS011;10463;52.378;9.688;2024-02-23T15:04:43;3.07;;;1.63;;
20609;SDS011;10463;52.378;9.688;2024-02-23T15:07:27;2.57;;;1.60;;
20609;SDS011;10463;52.378;9.688;2024-02-23T15:10:13;2.60;;;1.57;;
20609;SDS011;10463;52.378;9.688;2024-02-23T15:12:58;2.53;;;1.60;;
20609;SDS011;10463;52.378;9.688;2024-02-23T15:15:43;2.13;;;1.50;;
20609;SDS011;10463;52.378;9.688;2024-02-23T15:18:28;2.20;;;1.40;;
20609;SDS011;10463;52.378;9.688;2024-02-23T15:21:13;3.17;;;1.53;;
20609;SDS011;10463;52.378;9.688;2024-02-23T15:23:59;1.90;;;1.20;;
20609;SDS011;10463;52.378;9.688;2024-02-23T15:26:46;2.70;;;1.50;;
20609;SDS011;10463;52.378;9.688;2024-02-23T15:29:31;2.53;;;1.63;;
20609;SDS011;10463;52.378;9.688;2024-02-23T15:32:16;2.17;;;1.40;;
20609;SDS011;10463;52.378;9.688;2024-02-23T15:35:01;2.33;;;1.33;;
20609;SDS011;10463;52.378;9.688;2024-02-23T15:37:47;2.27;;;1.70;;
20609;SDS011;10463;52.378;9.688;2024-02-23T15:40:31;3.70;;;2.10;;
20609;SDS011;10463;52.378;9.688;2024-02-23T15:43:17;2.90;;;2.00;;
20609;SDS011;10463;52.378;9.688;2024-02-23T15:46:02;2.97;;;2.47;;
20609;SDS011;10463;52.378;9.688;2024-02-23T15:48:47;3.57;;;2.50;;
20609;SDS011;10463;52.378;9.688;2024-02-23T15:51:31;4.43;;;2.60;;
20609;SDS011;10463;52.378;9.688;2024-02-23T15:54:17;4.03;;;2.63;;
20609;SDS011;10463;52.378;9.688;2024-02-23T15:57:03;3.07;;;2.40;;
20609;SDS011;10463;52.378;9.688;2024-02-23T15:59:49;4.50;;;2.67;;
20609;SDS011;10463;52.378;9.688;2024-02-23T16:02:34;3.60;;;2.80;;
20609;SDS011;10463;52.378;9.688;2024-02-23T16:05:19;5.67;;;2.90;;
20609;SDS011;10463;52.378;9.688;2024-02-23T16:08:04;4.90;;;3.10;;
20609;SDS011;10463;52.378;9.688;2024-02-23T16:10:51;4.30;;;3.10;;
20609;SDS011;10463;52.378;9.688;2024-02-23T16:13:36;6.90;;;4.27;;
20609;SDS011;10463;52.378;9.688;2024-02-23T16:16:23;5.10;;;4.60;;
20609;SDS011;10463;52.378;9.688;2024-02-23T16:19:08;10.03;;;6.30;;
20609;SDS011;10463;52.378;9.688;2024-02-23T16:21:53;8.90;;;8.00;;
20609;SDS011;10463;52.378;9.688;2024-02-23T16:24:39;11.10;;;9.90;;
20609;SDS011;10463;52.378;9.688;2024-02-23T16:27:24;13.40;;;11.63;;
20609;SDS011;10463;52.378;9.688;2024-02-23T16:30:09;16.53;;;13.57;;
20609;SDS011;10463;52.378;9.688;2024-02-23T16:32:56;17.90;;;14.20;;
20609;SDS011;10463;52.378;9.688;2024-02-23T16:35:41;17.03;;;14.27;;
20609;SDS011;10463;52.378;9.688;2024-02-23T16:38:25;17.20;;;13.97;;